Time;durP1;ratioP1;P1;durP2;ratioP2;P2;SDS_P1;SDS_P2;PMS_P1;PMS_P2;Temp;Humidity;BMP_temperature;BMP_pressure;BME280_temperature;BME280_humidity;BME280_pressure;Samples;Min_cycle;Max_cycle;Signal;HPM_P1;HPM_P2
2023/07/23 04:05:34;;;;;;;1.20;1.17;;;19.20;91.60;;;;;;5479849;23;20552;-70
2023/07/23 04:08:02;;;;;;;1.80;1.13;;;19.20;91.70;;;;;;4996743;28;20918;-70
2023/07/23 04:10:27;;;;;;;1.70;1.60;;;19.20;91.70;;;;;;4979249;28;20176;-72
2023/07/23 04:12:53;;;;;;;1.40;1.30;;;19.20;91.70;;;;;;4996877;28;20411;-72
2023/07/23 04:15:18;;;;;;;1.20;1.20;;;19.20;91.80;;;;;;4996427;28;20207;-71
2023/07/23 04:17:44;;;;;;;1.30;1.20;;;19.10;92.00;;;;;;4996751;28;20174;-70
2023/07/23 04:20:10;;;;;;;1.83;1.40;;;19.10;92.80;;;;;;4996833;28;20171;-72
2023/07/23 04:22:35;;;;;;;1.50;1.40;;;19.10;92.70;;;;;;4996828;28;20175;-71
2023/07/23 04:25:01;;;;;;;1.67;1.57;;;19.10;92.60;;;;;;4996216;28;20196;-71
2023/07/23 04:27:27;;;;;;;2.30;1.40;;;19.10;92.60;;;;;;4996592;28;20179;-71
2023/07/23 04:29:53;;;;;;;0.77;0.77;;;19.00;92.70;;;;;;4995662;28;20187;-72
2023/07/23 04:32:19;;;;;;;1.47;1.37;;;19.00;93.10;;;;;;4980688;28;20201;-71
2023/07/23 04:34:45;;;;;;;2.60;1.60;;;19.00;93.60;;;;;;4975468;28;20481;-71
2023/07/23 04:37:11;;;;;;;1.20;1.20;;;19.10;93.80;;;;;;4977046;28;20183;-71
2023/07/23 04:39:37;;;;;;;1.53;1.43;;;19.20;93.90;;;;;;4959547;28;20200;-70
2023/07/23 04:42:03;;;;;;;1.10;1.00;;;19.50;93.60;;;;;;4977088;28;20458;-72
2023/07/23 04:44:29;;;;;;;1.47;1.37;;;19.70;92.90;;;;;;4976493;28;20211;-71
2023/07/23 04:46:54;;;;;;;1.03;1.03;;;20.00;92.60;;;;;;4977606;28;20849;-71
2023/07/23 04:49:20;;;;;;;1.17;1.03;;;20.30;92.10;;;;;;4989749;28;20215;-73
2023/07/23 04:51:45;;;;;;;1.20;1.10;;;20.50;91.50;;;;;;4996200;28;20184;-71
2023/07/23 04:54:11;;;;;;;1.47;1.37;;;20.70;91.60;;;;;;4995271;28;20231;-72
2023/07/23 04:56:37;;;;;;;1.60;1.50;;;20.80;91.20;;;;;;4995908;28;20180;-71
2023/07/23 04:59:03;;;;;;;1.37;1.20;;;20.90;91.20;;;;;;4995913;28;20182;-73
2023/07/23 05:01:28;;;;;;;1.17;1.07;;;20.90;90.70;;;;;;4977672;28;20418;-72
2023/07/23 05:03:54;;;;;;;1.40;1.30;;;21.00;90.80;;;;;;4994753;28;20655;-72
2023/07/23 05:06:20;;;;;;;1.27;1.27;;;21.10;90.90;;;;;;4995642;28;20203;-72
2023/07/23 05:08:45;;;;;;;1.40;1.30;;;21.10;90.70;;;;;;4995846;28;20190;-71
2023/07/23 05:11:11;;;;;;;1.27;0.80;;;21.20;90.90;;;;;;4995559;28;20259;-72
2023/07/23 05:13:36;;;;;;;1.47;1.37;;;21.30;90.50;;;;;;4993867;28;20179;-72
2023/07/23 05:16:02;;;;;;;1.10;1.10;;;21.50;90.60;;;;;;4976125;28;20226;-70
2023/07/23 05:18:29;;;;;;;1.27;1.17;;;21.70;90.30;;;;;;4976099;28;20267;-72
2023/07/23 05:20:54;;;;;;;1.73;1.47;;;21.80;90.30;;;;;;4958755;28;20746;-71
2023/07/23 05:23:20;;;;;;;1.67;1.30;;;21.90;90.30;;;;;;4983446;28;20422;-71
2023/07/23 05:25:46;;;;;;;0.90;0.90;;;21.90;90.10;;;;;;4977680;28;20203;-69
2023/07/23 05:28:12;;;;;;;1.00;0.90;;;22.00;90.10;;;;;;4995471;28;20182;-71
2023/07/23 05:30:38;;;;;;;1.00;0.93;;;22.00;89.70;;;;;;4994566;28;20181;-70
2023/07/23 05:33:04;;;;;;;1.50;1.40;;;22.10;88.30;;;;;;4977961;28;20984;-70
2023/07/23 05:35:29;;;;;;;1.10;1.00;;;22.10;89.00;;;;;;4995122;28;20543;-70
2023/07/23 05:37:55;;;;;;;1.50;1.50;;;22.10;87.90;;;;;;4995460;28;20172;-69
2023/07/23 05:40:21;;;;;;;1.20;1.10;;;22.20;88.10;;;;;;4995079;28;20176;-72
2023/07/23 05:42:47;;;;;;;1.10;1.00;;;22.30;88.00;;;;;;4977559;28;20180;-69
2023/07/23 05:45:12;;;;;;;0.97;0.97;;;22.50;87.40;;;;;;4972849;28;20444;-72
2023/07/23 05:47:38;;;;;;;1.93;1.77;;;22.60;87.40;;;;;;4975815;28;20188;-72
2023/07/23 05:50:04;;;;;;;1.33;1.20;;;22.60;86.20;;;;;;4975509;28;20179;-71
2023/07/23 05:52:29;;;;;;;1.00;1.00;;;22.70;87.00;;;;;;4975714;28;20172;-72
2023/07/23 05:54:55;;;;;;;0.87;0.87;;;22.70;86.20;;;;;;4974916;28;20466;-71
2023/07/23 05:57:21;;;;;;;1.00;0.93;;;22.80;85.90;;;;;;4975700;28;20551;-72
2023/07/23 05:59:46;;;;;;;1.00;1.00;;;22.90;85.50;;;;;;4977814;28;20689;-70
2023/07/23 06:02:12;;;;;;;1.20;1.17;;;23.20;85.00;;;;;;4994822;28;20257;-71
2023/07/23 06:04:41;;;;;;;1.10;1.10;;;23.30;84.20;;;;;;4993466;28;20572;-71
2023/07/23 06:07:07;;;;;;;1.27;1.17;;;23.50;83.90;;;;;;4994573;28;20241;-70
2023/07/23 06:09:33;;;;;;;1.20;1.13;;;23.90;83.60;;;;;;4977233;28;20419;-72
2023/07/23 06:11:58;;;;;;;1.20;1.10;;;24.20;81.90;;;;;;4977144;28;20399;-72
2023/07/23 06:14:24;;;;;;;2.70;1.27;;;24.40;81.40;;;;;;4992052;28;20214;-71
2023/07/23 06:16:50;;;;;;;1.63;1.17;;;24.40;81.00;;;;;;4978388;28;20598;-69
2023/07/23 06:19:16;;;;;;;1.23;1.20;;;24.30;81.50;;;;;;4981593;28;20530;-70
2023/07/23 06:21:41;;;;;;;1.67;1.57;;;24.30;81.00;;;;;;4975017;28;20412;-72
2023/07/23 06:24:07;;;;;;;1.17;1.17;;;24.40;81.30;;;;;;4974394;28;20176;-76
2023/07/23 06:26:32;;;;;;;1.00;0.90;;;24.50;81.40;;;;;;4974921;28;20179;-69
2023/07/23 06:28:58;;;;;;;1.33;1.23;;;24.70;81.30;;;;;;4974929;28;20623;-68
2023/07/23 06:31:23;;;;;;;1.50;1.40;;;25.00;82.20;;;;;;4979874;28;20743;-69
2023/07/23 06:33:49;;;;;;;1.50;1.40;;;25.20;81.30;;;;;;4976323;28;20612;-70
2023/07/23 06:36:15;;;;;;;0.90;0.90;;;25.50;80.20;;;;;;4994197;28;20200;-69
2023/07/23 06:38:40;;;;;;;1.50;1.40;;;25.70;79.20;;;;;;4994093;28;20176;-68
2023/07/23 06:41:06;;;;;;;1.50;1.40;;;25.90;79.20;;;;;;4992477;28;20233;-66
2023/07/23 06:43:32;;;;;;;1.20;1.20;;;26.00;77.90;;;;;;4991603;28;20238;-71
2023/07/23 06:45:58;;;;;;;1.30;1.20;;;26.10;78.00;;;;;;4993870;28;20430;-70
2023/07/23 06:48:28;;;;;;;1.30;1.20;;;26.30;78.10;;;;;;4994158;28;20241;-68
2023/07/23 06:50:54;;;;;;;1.60;1.50;;;26.40;77.80;;;;;;4981207;28;20195;-66
2023/07/23 06:53:19;;;;;;;1.40;1.30;;;26.50;76.50;;;;;;4980768;28;20442;-67
2023/07/23 06:56:03;;;;;;;2.30;1.77;;;26.70;75.90;;;;;;4974533;28;20968;-67
2023/07/23 06:58:33;;;;;;;1.83;1.73;;;26.90;74.30;;;;;;4993792;28;20174;-69
2023/07/23 07:00:59;;;;;;;1.60;1.50;;;27.10;72.90;;;;;;4980805;28;20406;-70
2023/07/23 07:03:25;;;;;;;1.57;1.10;;;27.40;70.40;;;;;;4974332;28;20473;-71
2023/07/23 07:05:51;;;;;;;1.30;1.27;;;27.60;69.70;;;;;;4974003;28;20222;-72
2023/07/23 07:08:17;;;;;;;1.60;1.33;;;27.70;68.50;;;;;;4996821;28;20404;-69
2023/07/23 07:10:42;;;;;;;1.43;1.33;;;27.90;68.80;;;;;;5001430;28;20401;-68
2023/07/23 07:13:08;;;;;;;1.90;1.33;;;28.00;67.90;;;;;;4974217;28;20246;-68
2023/07/23 07:15:33;;;;;;;1.57;1.27;;;28.20;67.50;;;;;;4982439;28;20210;-66
2023/07/23 07:17:59;;;;;;;1.90;1.70;;;28.40;67.50;;;;;;4995667;28;20183;-68
2023/07/23 07:20:25;;;;;;;1.40;1.30;;;28.40;66.70;;;;;;4997624;28;20218;-69
2023/07/23 07:22:51;;;;;;;1.10;1.10;;;28.30;66.00;;;;;;4997229;28;20168;-68
2023/07/23 07:25:16;;;;;;;1.37;1.27;;;28.00;66.50;;;;;;4980293;28;20207;-69
2023/07/23 07:27:42;;;;;;;2.37;2.27;;;27.70;67.10;;;;;;4978010;28;20402;-70
2023/07/23 07:30:08;;;;;;;3.80;1.73;;;27.30;67.70;;;;;;4979131;28;20176;-70
2023/07/23 07:32:33;;;;;;;1.40;1.30;;;27.20;68.70;;;;;;4993077;28;20211;-69
2023/07/23 07:34:59;;;;;;;1.80;1.70;;;27.20;69.20;;;;;;5016389;28;20207;-69
2023/07/23 07:37:27;;;;;;;1.40;1.30;;;27.30;69.60;;;;;;5008361;28;20182;-69
2023/07/23 07:39:52;;;;;;;1.67;1.57;;;27.80;70.20;;;;;;4995303;28;20207;-66
2023/07/23 07:42:18;;;;;;;1.60;1.50;;;28.40;70.90;;;;;;4992003;28;20952;-70
2023/07/23 07:44:44;;;;;;;1.37;1.27;;;29.30;68.30;;;;;;4968892;28;20282;-71
2023/07/23 07:47:10;;;;;;;1.13;1.10;;;30.40;63.90;;;;;;4962647;28;20176;-67
2023/07/23 07:49:36;;;;;;;2.00;1.80;;;31.20;62.00;;;;;;5003209;28;20191;-67
2023/07/23 07:52:01;;;;;;;2.97;2.53;;;31.70;61.10;;;;;;4999653;28;20385;-67
2023/07/23 07:54:27;;;;;;;2.00;1.67;;;31.50;59.10;;;;;;4995612;28;20212;-68
2023/07/23 07:56:54;;;;;;;1.10;1.03;;;31.00;58.70;;;;;;4996825;28;20218;-69
2023/07/23 07:59:20;;;;;;;1.50;1.40;;;30.50;59.20;;;;;;4997002;28;20541;-68
2023/07/23 08:01:46;;;;;;;1.73;1.43;;;30.00;59.90;;;;;;4996706;28;20415;-65
2023/07/23 08:04:12;;;;;;;1.57;1.47;;;29.60;60.80;;;;;;4996298;28;20438;-66
2023/07/23 08:06:38;;;;;;;1.70;1.60;;;29.20;62.70;;;;;;4978968;28;20210;-68
2023/07/23 08:09:04;;;;;;;1.03;1.00;;;29.00;64.20;;;;;;4993905;28;20179;-66
2023/07/23 08:11:31;;;;;;;2.23;2.03;;;29.30;62.40;;;;;;4993405;28;20241;-66
2023/07/23 08:13:57;;;;;;;2.13;1.70;;;29.60;63.00;;;;;;4993409;28;20433;-67
2023/07/23 08:16:23;;;;;;;1.27;1.17;;;30.10;61.50;;;;;;4986028;28;20812;-70
2023/07/23 08:18:49;;;;;;;1.60;1.50;;;30.70;61.10;;;;;;4995961;28;20557;-67
2023/07/23 08:21:15;;;;;;;2.17;2.00;;;31.50;61.00;;;;;;4996561;28;20545;-69
2023/07/23 08:23:41;;;;;;;1.50;1.40;;;32.40;59.40;;;;;;4986050;28;20185;-73
2023/07/23 08:26:11;;;;;;;1.60;1.47;;;33.20;58.10;;;;;;4976935;28;20255;-73
2023/07/23 08:28:38;;;;;;;1.57;1.47;;;33.60;56.40;;;;;;4976121;28;20531;-69
2023/07/23 08:31:04;;;;;;;1.60;1.50;;;33.70;56.10;;;;;;4976807;28;20427;-68
2023/07/23 08:33:32;;;;;;;1.50;1.40;;;33.90;56.00;;;;;;4970613;28;21003;-69
2023/07/23 08:35:59;;;;;;;2.77;2.57;;;33.80;55.60;;;;;;4994486;28;20441;-71
2023/07/23 08:38:25;;;;;;;1.83;1.73;;;33.80;55.90;;;;;;4995487;28;20779;-72
2023/07/23 08:41:02;;;;;;;1.43;1.37;;;33.60;55.30;;;;;;4996259;28;20407;-69
2023/07/23 08:43:43;;;;;;;1.37;1.27;;;33.20;55.60;;;;;;4988574;28;20259;-70
2023/07/23 08:46:26;;;;;;;1.50;1.40;;;32.70;55.70;;;;;;4988130;28;20442;-67
2023/07/23 08:48:56;;;;;;;1.30;1.30;;;32.30;56.60;;;;;;4950539;28;20943;-68
2023/07/23 08:51:26;;;;;;;2.17;1.90;;;32.30;56.90;;;;;;4976610;28;20407;-69
2023/07/23 08:53:53;;;;;;;1.40;1.30;;;32.60;57.10;;;;;;4976103;28;20400;-69
2023/07/23 08:56:19;;;;;;;1.50;1.40;;;33.00;56.80;;;;;;4976448;28;20459;-73
2023/07/23 08:58:45;;;;;;;1.47;1.37;;;33.00;56.30;;;;;;4958914;28;20395;-70
2023/07/23 09:01:15;;;;;;;1.13;1.03;;;32.80;56.50;;;;;;4976593;28;20814;-67
2023/07/23 09:03:40;;;;;;;1.30;1.20;;;32.90;56.40;;;;;;4969718;28;20818;-64
2023/07/23 09:06:06;;;;;;;1.57;1.47;;;33.00;56.60;;;;;;4993521;28;20483;-67
2023/07/23 09:08:33;;;;;;;1.20;1.20;;;33.20;56.10;;;;;;4995692;28;20183;-66
2023/07/23 09:10:59;;;;;;;1.60;1.50;;;33.40;55.70;;;;;;4995819;28;20203;-65
2023/07/23 09:13:33;;;;;;;1.50;1.40;;;33.50;56.20;;;;;;4995756;28;20429;-64
2023/07/23 09:15:58;;;;;;;1.50;1.40;;;33.60;56.20;;;;;;4981017;28;20287;-64
2023/07/23 09:18:24;;;;;;;1.13;1.10;;;33.70;55.70;;;;;;4984390;28;21002;-64
2023/07/23 09:20:50;;;;;;;1.70;1.60;;;33.80;55.80;;;;;;4995397;28;20508;-64
2023/07/23 09:23:16;;;;;;;1.63;1.53;;;33.90;55.40;;;;;;4995174;28;20167;-65
2023/07/23 09:25:44;;;;;;;0.93;0.93;;;34.10;55.50;;;;;;4994399;28;20684;-66
2023/07/23 09:28:26;;;;;;;1.20;1.10;;;34.20;54.60;;;;;;4991757;28;20191;-66
2023/07/23 09:30:56;;;;;;;1.43;1.33;;;34.50;54.60;;;;;;4976773;28;20847;-68
2023/07/23 09:33:27;;;;;;;1.17;1.13;;;34.60;53.90;;;;;;4985746;28;20426;-66
2023/07/23 09:35:58;;;;;;;1.20;1.10;;;34.60;54.50;;;;;;4994893;28;20995;-68
2023/07/23 09:38:24;;;;;;;1.10;1.10;;;34.90;54.00;;;;;;4994451;28;20407;-65
2023/07/23 09:40:49;;;;;;;1.37;1.30;;;35.20;53.50;;;;;;4995133;28;20745;-66
2023/07/23 09:43:15;;;;;;;1.70;1.60;;;35.10;52.70;;;;;;4992305;28;20197;-67
2023/07/23 09:45:43;;;;;;;1.37;1.27;;;34.90;53.10;;;;;;4970679;28;20653;-67
2023/07/23 09:48:13;;;;;;;2.33;1.10;;;34.50;52.80;;;;;;5001614;28;20187;-66
2023/07/23 09:50:39;;;;;;;1.33;1.23;;;34.10;53.10;;;;;;4994875;28;20410;-65
2023/07/23 09:53:08;;;;;;;1.20;1.20;;;33.50;53.30;;;;;;4994802;28;20746;-68
2023/07/23 09:55:36;;;;;;;1.20;1.10;;;32.90;53.90;;;;;;4994283;28;20211;-69
2023/07/23 09:58:02;;;;;;;0.93;0.93;;;32.70;54.60;;;;;;4994726;28;20422;-66
2023/07/23 10:00:28;;;;;;;1.47;1.00;;;32.50;54.30;;;;;;4994742;28;20900;-64
2023/07/23 10:02:55;;;;;;;0.90;0.90;;;32.40;53.70;;;;;;4965186;28;20410;-65
2023/07/23 10:05:22;;;;;;;0.93;0.87;;;32.80;54.00;;;;;;4974478;28;20261;-64
2023/07/23 10:07:48;;;;;;;1.10;1.00;;;33.20;52.80;;;;;;4991802;28;20489;-64
2023/07/23 10:10:15;;;;;;;1.10;1.00;;;33.50;53.10;;;;;;4986091;28;20838;-64
2023/07/23 10:12:41;;;;;;;1.50;1.40;;;34.10;52.50;;;;;;4974941;28;20215;-65
2023/07/23 10:15:08;;;;;;;1.13;1.03;;;34.90;52.20;;;;;;4974366;28;20463;-64
2023/07/23 10:17:46;;;;;;;1.97;1.70;;;35.70;51.00;;;;;;4976240;28;20460;-68
2023/07/23 10:20:14;;;;;;;3.20;2.90;;;36.30;50.90;;;;;;4975009;28;20407;-70
2023/07/23 10:22:43;;;;;;;1.00;1.00;;;36.90;50.40;;;;;;4957542;28;20474;-68
2023/07/23 10:25:25;;;;;;;1.73;1.23;;;37.30;49.40;;;;;;4974394;28;20525;-70
2023/07/23 10:27:56;;;;;;;1.50;1.40;;;37.40;48.50;;;;;;4975709;28;20470;-66
2023/07/23 10:30:23;;;;;;;1.20;1.10;;;37.00;48.50;;;;;;4974961;28;20818;-68
2023/07/23 10:33:08;;;;;;;1.10;1.10;;;36.50;48.80;;;;;;4989735;28;20406;-67
2023/07/23 10:35:55;;;;;;;1.23;1.13;;;35.70;48.80;;;;;;4993708;28;20441;-67
2023/07/23 10:38:22;;;;;;;1.50;1.40;;;35.20;49.70;;;;;;4994099;28;20415;-66
2023/07/23 10:40:48;;;;;;;1.10;1.10;;;35.00;50.40;;;;;;4994055;28;20422;-68
2023/07/23 10:43:14;;;;;;;1.30;1.20;;;35.20;50.60;;;;;;4994191;28;20426;-70
2023/07/23 10:46:10;;;;;;;1.67;1.43;;;35.80;50.40;;;;;;4993119;28;20720;-67
2023/07/23 10:48:41;;;;;;;1.37;1.27;;;36.40;49.70;;;;;;4973936;28;20524;-65
2023/07/23 10:51:11;;;;;;;1.37;1.30;;;36.90;49.20;;;;;;4974094;28;20430;-66
2023/07/23 10:54:02;;;;;;;1.63;1.30;;;37.00;48.60;;;;;;4974359;28;20769;-65
2023/07/23 10:56:40;;;;;;;1.43;1.33;;;36.30;49.10;;;;;;4957014;28;20455;-68
2023/07/23 10:59:13;;;;;;;1.67;1.57;;;35.60;48.40;;;;;;4974362;28;20501;-69
2023/07/23 11:01:44;;;;;;;1.33;1.20;;;34.80;48.90;;;;;;4974609;28;20412;-71
2023/07/23 11:04:26;;;;;;;1.60;1.50;;;34.00;49.70;;;;;;4980264;28;20452;-70
2023/07/23 11:06:57;;;;;;;1.10;1.00;;;33.10;50.90;;;;;;4974202;28;20435;-70
2023/07/23 11:09:28;;;;;;;6.30;1.00;;;32.90;51.70;;;;;;4973931;28;20411;-67
2023/07/23 11:11:55;;;;;;;1.13;1.07;;;32.80;52.00;;;;;;4974265;28;20412;-70
2023/07/23 11:14:26;;;;;;;1.43;1.33;;;32.80;52.30;;;;;;4974079;28;20775;-67
2023/07/23 11:16:54;;;;;;;1.43;1.33;;;32.90;54.20;;;;;;4974209;28;20418;-67
2023/07/23 11:19:21;;;;;;;1.50;1.40;;;33.20;53.50;;;;;;4993722;28;20414;-72
2023/07/23 11:21:52;;;;;;;1.43;1.30;;;33.40;52.20;;;;;;4993653;28;20438;-70
2023/07/23 11:24:19;;;;;;;1.10;1.03;;;33.30;51.70;;;;;;4966822;28;20434;-69
2023/07/23 11:26:45;;;;;;;1.43;1.33;;;33.10;52.50;;;;;;4974267;28;20386;-70
2023/07/23 11:29:11;;;;;;;1.47;1.37;;;32.90;51.50;;;;;;4974207;28;20389;-67
2023/07/23 11:31:38;;;;;;;1.33;1.20;;;32.50;51.50;;;;;;4974341;28;20416;-70
2023/07/23 11:34:05;;;;;;;1.43;1.33;;;32.00;52.50;;;;;;4973957;28;20412;-67
2023/07/23 11:36:35;;;;;;;1.77;1.20;;;31.70;53.30;;;;;;4974340;28;20465;-71
2023/07/23 11:39:02;;;;;;;1.10;1.10;;;31.60;53.80;;;;;;4982505;28;20401;-69
2023/07/23 11:41:41;;;;;;;2.00;1.03;;;31.40;54.10;;;;;;4993918;28;20720;-67
2023/07/23 11:44:08;;;;;;;1.53;1.43;;;31.30;54.30;;;;;;4993288;28;20828;-67
2023/07/23 11:46:37;;;;;;;1.17;1.07;;;31.30;54.70;;;;;;4993704;28;20378;-67
2023/07/23 11:49:06;;;;;;;1.17;1.17;;;31.40;53.90;;;;;;4993676;28;20382;-70
2023/07/23 11:51:32;;;;;;;1.20;1.10;;;31.30;53.30;;;;;;4993476;28;20389;-70
2023/07/23 11:54:07;;;;;;;1.60;1.50;;;31.30;53.40;;;;;;4982844;28;20416;-66
2023/07/23 11:56:36;;;;;;;1.63;1.53;;;31.20;53.20;;;;;;4974197;28;20948;-68
2023/07/23 11:59:06;;;;;;;1.07;1.00;;;31.10;53.50;;;;;;4974283;28;20379;-66
2023/07/23 12:01:35;;;;;;;1.20;1.10;;;31.00;54.10;;;;;;4974040;28;20433;-70
2023/07/23 12:04:03;;;;;;;2.73;1.33;;;31.10;54.00;;;;;;4975545;28;20390;-67
2023/07/23 12:06:30;;;;;;;1.97;1.77;;;31.10;52.60;;;;;;4960155;28;20414;-68
2023/07/23 12:08:56;;;;;;;1.73;1.63;;;31.10;52.10;;;;;;4971781;28;20501;-67
2023/07/23 12:11:23;;;;;;;1.60;1.30;;;31.10;51.50;;;;;;4996769;28;21022;-66
2023/07/23 12:13:54;;;;;;;1.30;1.20;;;31.10;51.90;;;;;;4979131;28;20506;-65
2023/07/23 12:16:44;;;;;;;2.43;1.57;;;31.10;52.50;;;;;;4996734;28;20409;-67
2023/07/23 12:19:12;;;;;;;1.40;1.30;;;31.10;51.60;;;;;;4996676;28;20392;-67
2023/07/23 12:21:40;;;;;;;1.83;1.73;;;31.00;51.50;;;;;;4996810;28;20400;-66
2023/07/23 12:24:20;;;;;;;1.90;1.30;;;31.00;52.30;;;;;;4980493;28;20409;-66
2023/07/23 12:26:51;;;;;;;1.60;1.50;;;31.00;51.70;;;;;;4977162;28;20397;-66
2023/07/23 12:29:19;;;;;;;2.37;1.47;;;31.00;51.90;;;;;;4977398;28;20511;-67
2023/07/23 12:31:46;;;;;;;1.47;1.37;;;30.80;51.70;;;;;;4977334;28;20964;-67
2023/07/23 12:34:13;;;;;;;1.60;1.47;;;30.80;51.80;;;;;;4976751;28;20743;-67
2023/07/23 12:36:40;;;;;;;1.60;1.50;;;30.80;52.30;;;;;;4977390;28;20382;-66
2023/07/23 12:39:07;;;;;;;1.03;1.00;;;30.80;52.30;;;;;;4993768;28;20426;-68
2023/07/23 12:41:33;;;;;;;2.50;1.53;;;30.60;52.00;;;;;;4996325;28;20476;-66
2023/07/23 12:44:00;;;;;;;1.60;1.50;;;30.40;52.20;;;;;;4978693;28;20978;-67
2023/07/23 12:46:26;;;;;;;1.47;1.37;;;30.10;52.30;;;;;;4996188;28;20436;-66
2023/07/23 12:48:51;;;;;;;1.70;1.30;;;30.00;52.40;;;;;;4971745;28;20448;-65
2023/07/23 12:51:17;;;;;;;1.40;1.30;;;29.80;53.10;;;;;;4967649;28;20235;-65
2023/07/23 12:53:43;;;;;;;1.50;1.40;;;29.60;53.70;;;;;;4976211;28;20199;-66
2023/07/23 12:56:08;;;;;;;1.40;1.30;;;29.40;54.00;;;;;;4976507;28;20254;-66
2023/07/23 12:58:34;;;;;;;1.47;1.37;;;29.30;54.20;;;;;;4976547;28;20176;-65
2023/07/23 13:00:59;;;;;;;1.90;1.30;;;29.00;54.60;;;;;;4976462;28;20180;-64
2023/07/23 13:03:25;;;;;;;1.60;1.50;;;28.90;54.80;;;;;;4976694;28;20259;-67
2023/07/23 13:05:51;;;;;;;1.37;1.20;;;28.80;55.10;;;;;;4975970;28;20207;-69
2023/07/23 13:08:16;;;;;;;1.63;1.30;;;28.60;55.70;;;;;;4976350;28;20168;-68
2023/07/23 13:10:42;;;;;;;1.23;1.13;;;28.50;56.40;;;;;;4976463;28;20180;-66
2023/07/23 13:13:07;;;;;;;1.50;1.40;;;28.50;56.70;;;;;;4976328;28;20168;-67
2023/07/23 13:15:33;;;;;;;1.70;1.60;;;28.50;56.90;;;;;;4975343;28;20192;-66
2023/07/23 13:17:58;;;;;;;2.60;2.40;;;28.50;57.20;;;;;;4987060;28;20191;-66
2023/07/23 13:20:24;;;;;;;2.03;1.93;;;28.50;57.50;;;;;;4978062;28;20175;-65
2023/07/23 13:22:50;;;;;;;2.17;2.07;;;28.50;57.40;;;;;;4991218;28;20665;-68
2023/07/23 13:25:15;;;;;;;2.07;1.97;;;28.50;57.50;;;;;;4982849;28;20215;-63
2023/07/23 13:27:41;;;;;;;1.57;1.47;;;28.40;58.10;;;;;;4986842;28;20188;-66
2023/07/23 13:30:07;;;;;;;1.40;1.30;;;28.50;58.60;;;;;;4975956;28;20625;-67
2023/07/23 13:32:33;;;;;;;2.07;1.87;;;28.50;58.30;;;;;;4975843;28;20642;-64
2023/07/23 13:34:59;;;;;;;1.63;1.53;;;28.40;58.00;;;;;;4990809;28;20287;-65
2023/07/23 13:37:25;;;;;;;1.40;1.30;;;28.30;58.30;;;;;;4995109;28;20920;-69
2023/07/23 13:39:50;;;;;;;1.33;1.23;;;28.30;59.30;;;;;;4995127;28;20497;-66
2023/07/23 13:42:21;;;;;;;1.33;1.23;;;28.20;58.50;;;;;;4995073;28;20178;-64
2023/07/23 13:44:46;;;;;;;1.37;1.23;;;28.30;58.90;;;;;;4994508;28;20202;-66
2023/07/23 13:47:12;;;;;;;1.03;1.03;;;28.20;58.90;;;;;;4995204;28;20926;-64
2023/07/23 13:49:38;;;;;;;1.27;1.20;;;28.20;59.10;;;;;;4979895;28;20698;-67
2023/07/23 13:52:05;;;;;;;2.00;1.67;;;28.20;59.30;;;;;;4975763;28;20183;-65
2023/07/23 13:54:31;;;;;;;1.87;1.57;;;28.20;58.40;;;;;;4975057;28;20457;-66
2023/07/23 13:56:57;;;;;;;1.33;1.20;;;28.20;57.20;;;;;;4975408;28;20423;-66
2023/07/23 13:59:26;;;;;;;1.70;1.60;;;28.10;56.90;;;;;;4975564;28;20574;-66
2023/07/23 14:01:53;;;;;;;1.80;1.70;;;28.20;57.00;;;;;;4975543;28;20188;-68
2023/07/23 14:04:18;;;;;;;1.93;1.73;;;28.20;57.50;;;;;;4974890;28;20940;-66
2023/07/23 14:06:44;;;;;;;2.13;1.70;;;28.30;56.30;;;;;;4994502;28;20445;-65
2023/07/23 14:09:09;;;;;;;1.40;1.30;;;28.30;56.80;;;;;;4977214;28;20178;-65
2023/07/23 14:11:35;;;;;;;1.50;1.10;;;28.40;56.50;;;;;;4994687;28;20199;-66
2023/07/23 14:14:00;;;;;;;2.47;1.70;;;28.40;56.50;;;;;;4994253;28;20270;-71
2023/07/23 14:16:26;;;;;;;1.90;1.63;;;28.40;56.50;;;;;;4994415;28;20195;-66
2023/07/23 14:18:52;;;;;;;2.00;1.77;;;28.40;56.00;;;;;;4993813;28;20215;-66
2023/07/23 14:21:20;;;;;;;2.13;1.87;;;28.40;55.90;;;;;;4994318;28;20178;-67
2023/07/23 14:23:45;;;;;;;1.73;1.60;;;28.40;56.00;;;;;;4976833;28;20172;-65
2023/07/23 14:26:11;;;;;;;2.07;1.70;;;28.40;55.30;;;;;;4993630;28;20424;-67
2023/07/23 14:28:36;;;;;;;1.27;1.17;;;28.40;53.60;;;;;;4994410;28;20582;-67
2023/07/23 14:31:02;;;;;;;1.40;1.30;;;28.30;51.40;;;;;;4994560;28;20167;-68
2023/07/23 14:33:27;;;;;;;1.47;1.37;;;28.30;50.60;;;;;;4975691;28;20176;-68
2023/07/23 14:35:53;;;;;;;1.53;1.43;;;28.20;51.00;;;;;;4975026;28;20223;-65
2023/07/23 14:38:19;;;;;;;2.50;2.00;;;28.20;51.20;;;;;;4974675;28;20176;-66
2023/07/23 14:40:45;;;;;;;2.10;1.53;;;28.20;51.00;;;;;;4975188;28;20386;-66
2023/07/23 14:43:10;;;;;;;1.83;1.47;;;28.20;51.00;;;;;;4957514;28;20172;-66
2023/07/23 14:45:36;;;;;;;1.70;1.60;;;28.20;51.20;;;;;;4974310;28;20286;-66
2023/07/23 14:48:02;;;;;;;1.43;1.33;;;28.10;51.20;;;;;;4990814;28;20194;-66
2023/07/23 14:50:28;;;;;;;2.97;1.80;;;28.10;51.50;;;;;;4993858;28;20566;-64
2023/07/23 14:52:54;;;;;;;1.60;1.30;;;28.00;51.60;;;;;;4994215;28;20188;-65
2023/07/23 14:55:21;;;;;;;2.40;1.80;;;27.90;51.80;;;;;;4993448;28;20400;-65
2023/07/23 14:57:47;;;;;;;1.83;1.73;;;27.90;52.20;;;;;;4994053;28;20178;-68
2023/07/23 15:00:13;;;;;;;1.60;1.50;;;27.90;52.10;;;;;;4994000;28;20389;-65
2023/07/23 15:02:38;;;;;;;1.53;1.43;;;27.90;52.40;;;;;;4978372;28;20519;-64
2023/07/23 15:05:06;;;;;;;5.87;1.70;;;27.90;52.80;;;;;;4979887;28;20799;-65
2023/07/23 15:07:31;;;;;;;1.70;1.60;;;27.90;53.30;;;;;;4994039;28;20205;-66
2023/07/23 15:09:58;;;;;;;2.17;1.50;;;27.90;53.60;;;;;;4994822;28;20414;-74
2023/07/23 15:12:24;;;;;;;2.37;1.80;;;28.00;54.30;;;;;;4994769;28;20177;-74
2023/07/23 15:14:50;;;;;;;1.73;1.50;;;27.90;53.80;;;;;;4976744;28;20424;-73
2023/07/23 15:17:16;;;;;;;1.97;1.80;;;27.80;53.40;;;;;;4994788;28;20484;-72
2023/07/23 15:19:42;;;;;;;1.60;1.50;;;27.60;52.70;;;;;;4988334;28;20236;-75
2023/07/23 15:22:08;;;;;;;1.80;1.20;;;27.50;52.60;;;;;;4973525;28;20421;-72
2023/07/23 15:24:36;;;;;;;1.53;1.40;;;27.30;52.90;;;;;;4974038;28;20257;-73
2023/07/23 15:27:07;;;;;;;2.03;1.93;;;27.20;53.10;;;;;;4974161;28;20745;-72
2023/07/23 15:29:41;;;;;;;1.50;1.40;;;27.20;53.00;;;;;;4984681;28;20428;-71
2023/07/23 15:32:07;;;;;;;1.63;1.50;;;27.10;53.30;;;;;;4976559;28;20401;-70
2023/07/23 15:34:32;;;;;;;5.70;3.83;;;27.00;53.60;;;;;;4973610;28;20501;-70
2023/07/23 15:36:58;;;;;;;2.33;1.83;;;26.90;54.60;;;;;;4974822;28;20433;-74
2023/07/23 15:39:24;;;;;;;1.60;1.50;;;26.90;54.50;;;;;;4978113;28;20176;-72
2023/07/23 15:41:49;;;;;;;1.50;1.40;;;26.80;54.70;;;;;;4978051;28;20173;-70
2023/07/23 15:44:16;;;;;;;2.17;1.73;;;26.70;55.00;;;;;;4987616;28;20179;-71
2023/07/23 15:46:42;;;;;;;2.33;1.53;;;26.70;55.10;;;;;;4997164;28;20211;-72
2023/07/23 15:49:08;;;;;;;2.77;1.43;;;26.70;55.40;;;;;;4997155;28;20383;-71
2023/07/23 15:51:34;;;;;;;3.83;1.83;;;26.70;55.30;;;;;;4997317;28;20447;-68
2023/07/23 15:54:02;;;;;;;4.30;2.17;;;26.70;55.40;;;;;;4996964;28;20454;-72
2023/07/23 15:56:28;;;;;;;3.07;1.67;;;26.70;57.30;;;;;;4996981;28;20817;-72
2023/07/23 15:58:53;;;;;;;2.60;2.00;;;26.60;58.60;;;;;;4987113;28;20419;-71
2023/07/23 16:01:19;;;;;;;2.30;2.10;;;26.50;59.20;;;;;;4977605;28;20177;-70
2023/07/23 16:03:45;;;;;;;2.00;1.63;;;26.40;58.90;;;;;;4977299;28;20169;-68
2023/07/23 16:06:10;;;;;;;2.33;2.13;;;26.40;59.40;;;;;;4977282;28;20227;-68
2023/07/23 16:08:36;;;;;;;2.20;2.00;;;26.30;59.70;;;;;;4977254;28;20176;-69
2023/07/23 16:11:01;;;;;;;2.50;2.03;;;26.30;59.40;;;;;;4977566;28;20177;-68
2023/07/23 16:13:27;;;;;;;2.57;2.37;;;26.30;59.20;;;;;;4984812;28;20172;-74
2023/07/23 16:15:53;;;;;;;1.40;1.30;;;26.30;60.00;;;;;;4996493;28;20211;-71
2023/07/23 16:18:18;;;;;;;2.60;1.90;;;26.20;60.40;;;;;;4979282;28;20638;-70
2023/07/23 16:20:45;;;;;;;3.03;2.03;;;26.20;59.80;;;;;;4996704;28;20226;-71
2023/07/23 16:23:11;;;;;;;1.87;1.67;;;26.20;59.60;;;;;;4979313;28;20192;-70
2023/07/23 16:25:36;;;;;;;2.40;1.83;;;26.20;58.90;;;;;;4978712;28;20466;-72
2023/07/23 16:28:04;;;;;;;1.93;1.63;;;26.10;58.60;;;;;;4996276;28;20172;-71
2023/07/23 16:30:30;;;;;;;3.50;2.40;;;26.20;58.10;;;;;;4996503;28;20549;-71
2023/07/23 16:32:55;;;;;;;3.00;1.90;;;26.20;58.20;;;;;;4996250;28;20428;-72
2023/07/23 16:35:21;;;;;;;2.50;2.23;;;26.20;58.40;;;;;;4995885;28;20195;-70
2023/07/23 16:37:49;;;;;;;2.23;2.00;;;26.20;58.20;;;;;;4996446;28;20579;-71
2023/07/23 16:40:16;;;;;;;3.50;2.10;;;26.10;58.80;;;;;;4978947;28;20325;-71
2023/07/23 16:42:48;;;;;;;2.80;1.90;;;26.10;58.90;;;;;;4990116;28;20428;-71
2023/07/23 16:45:14;;;;;;;2.00;1.90;;;26.10;58.90;;;;;;4958981;28;20463;-70
2023/07/23 16:47:40;;;;;;;2.40;1.83;;;26.10;58.60;;;;;;4976611;28;20408;-70
2023/07/23 16:50:06;;;;;;;2.13;1.77;;;26.00;59.20;;;;;;4994792;28;20414;-70
2023/07/23 16:52:32;;;;;;;3.77;3.03;;;26.00;58.80;;;;;;4978159;28;20175;-71